Time;durP1;ratioP1;P1;durP2;ratioP2;P2;SDS_P1;SDS_P2;PMS_P1;PMS_P2;Temp;Humidity;BMP_temperature;BMP_pressure;BME280_temperature;BME280_humidity;BME280_pressure;Samples;Min_cycle;Max_cycle;Signal;HPM_P1;HPM_P2
2024/01/04 00:00:39;;;;;;;0.20;0.20;;;;;;;;;;5067645;28;20131;-79
2024/01/04 00:03:06;;;;;;;0.45;0.32;;;;;;;;;;5067908;28;20037;-79
2024/01/04 00:05:34;;;;;;;0.10;0.10;;;;;;;;;;5060765;28;20490;-79
2024/01/04 00:08:01;;;;;;;0.10;0.10;;;;;;;;;;5049295;28;20041;-79
2024/01/04 00:10:29;;;;;;;0.15;0.15;;;;;;;;;;5067758;28;20584;-79
2024/01/04 00:12:56;;;;;;;0.20;0.20;;;;;;;;;;5070989;28;20045;-79
2024/01/04 00:15:23;;;;;;;0.15;0.15;;;;;;;;;;5075435;28;20044;-79
2024/01/04 00:17:51;;;;;;;0.00;0.00;;;;;;;;;;5070158;28;20052;-79
2024/01/04 00:20:18;;;;;;;0.10;0.10;;;;;;;;;;5070595;28;20037;-79
2024/01/04 00:22:46;;;;;;;0.47;0.47;;;;;;;;;;5052540;28;20415;-79
2024/01/04 00:25:13;;;;;;;1.50;0.55;;;;;;;;;;5050857;28;20058;-79
2024/01/04 00:27:41;;;;;;;0.28;0.28;;;;;;;;;;5066623;28;20055;-80
2024/01/04 00:30:09;;;;;;;0.35;0.20;;;;;;;;;;5050675;28;20052;-79
2024/01/04 00:32:37;;;;;;;0.20;0.15;;;;;;;;;;5069063;28;20079;-79
2024/01/04 00:35:05;;;;;;;0.10;0.10;;;;;;;;;;5047520;28;20040;-80
2024/01/04 00:37:32;;;;;;;0.38;0.38;;;;;;;;;;5067675;28;20518;-79
2024/01/04 00:39:59;;;;;;;2.28;0.30;;;;;;;;;;5066017;28;20143;-79
2024/01/04 00:42:27;;;;;;;0.13;0.13;;;;;;;;;;5067621;28;20071;-77
2024/01/04 00:44:54;;;;;;;0.35;0.35;;;;;;;;;;5067909;28;20708;-79
2024/01/04 00:47:21;;;;;;;0.75;0.40;;;;;;;;;;5067101;28;20068;-79
2024/01/04 00:49:49;;;;;;;0.10;0.10;;;;;;;;;;5062737;28;20132;-79
2024/01/04 00:52:16;;;;;;;0.32;0.32;;;;;;;;;;5069576;28;20122;-79
2024/01/04 00:54:43;;;;;;;12.25;0.38;;;;;;;;;;5072954;28;20509;-79
2024/01/04 00:57:11;;;;;;;0.10;0.10;;;;;;;;;;5057934;28;20052;-79
2024/01/04 00:59:38;;;;;;;0.20;0.20;;;;;;;;;;5070083;28;20049;-79
2024/01/04 01:02:06;;;;;;;0.10;0.10;;;;;;;;;;5064913;28;20151;-79
2024/01/04 01:04:33;;;;;;;0.05;0.05;;;;;;;;;;5069884;28;20040;-79
2024/01/04 01:07:00;;;;;;;0.10;0.10;;;;;;;;;;5053381;28;20040;-79
2024/01/04 01:09:28;;;;;;;0.20;0.20;;;;;;;;;;5067566;28;20041;-79
2024/01/04 01:11:56;;;;;;;1.45;0.47;;;;;;;;;;5052712;28;20690;-79
2024/01/04 01:14:23;;;;;;;1.65;0.55;;;;;;;;;;5069756;28;20063;-80
2024/01/04 01:16:51;;;;;;;0.10;0.10;;;;;;;;;;5067113;28;20131;-80
2024/01/04 01:19:18;;;;;;;0.10;0.10;;;;;;;;;;5070232;28;20036;-80
2024/01/04 01:21:46;;;;;;;0.10;0.10;;;;;;;;;;5074420;28;20044;-79
2024/01/04 01:24:13;;;;;;;0.30;0.30;;;;;;;;;;5068576;28;20525;-80
2024/01/04 01:26:42;;;;;;;0.10;0.10;;;;;;;;;;5053001;28;20033;-80
2024/01/04 01:29:10;;;;;;;0.10;0.10;;;;;;;;;;5055539;28;20412;-80
2024/01/04 01:31:43;;;;;;;0.10;0.10;;;;;;;;;;5031015;28;20052;-80
2024/01/04 01:34:11;;;;;;;0.38;0.38;;;;;;;;;;5052372;28;20510;-80
2024/01/04 01:36:42;;;;;;;0.10;0.10;;;;;;;;;;5064666;28;20124;-80
2024/01/04 01:39:11;;;;;;;0.15;0.15;;;;;;;;;;5071941;28;20041;-80
2024/01/04 01:41:38;;;;;;;0.10;0.10;;;;;;;;;;5072681;28;20048;-80
2024/01/04 01:44:06;;;;;;;0.10;0.10;;;;;;;;;;5073108;28;20069;-80
2024/01/04 01:46:34;;;;;;;0.10;0.10;;;;;;;;;;5052982;28;20119;-79
2024/01/04 01:49:01;;;;;;;0.20;0.20;;;;;;;;;;5071303;28;20072;-80
2024/01/04 01:51:29;;;;;;;1.33;0.38;;;;;;;;;;5068005;28;20127;-80
2024/01/04 01:53:56;;;;;;;0.45;0.20;;;;;;;;;;5060223;28;20052;-80
2024/01/04 01:56:24;;;;;;;0.30;0.10;;;;;;;;;;5051815;28;20048;-80
2024/01/04 01:58:52;;;;;;;0.80;0.30;;;;;;;;;;5053289;28;20041;-79
2024/01/04 02:01:19;;;;;;;0.10;0.10;;;;;;;;;;5052644;28;20127;-80
2024/01/04 02:03:47;;;;;;;0.10;0.10;;;;;;;;;;5068801;28;20048;-80
2024/01/04 02:06:14;;;;;;;0.17;0.17;;;;;;;;;;5071985;28;20533;-80
2024/01/04 02:08:44;;;;;;;0.10;0.10;;;;;;;;;;5064820;28;20052;-80
2024/01/04 02:11:11;;;;;;;0.17;0.17;;;;;;;;;;5070654;28;20072;-79
2024/01/04 02:13:39;;;;;;;0.88;0.25;;;;;;;;;;5054697;28;20065;-80
2024/01/04 02:16:06;;;;;;;0.22;0.22;;;;;;;;;;5052258;28;20123;-80
2024/01/04 02:18:34;;;;;;;0.85;0.43;;;;;;;;;;5053567;28;20041;-80
2024/01/04 02:21:02;;;;;;;0.22;0.22;;;;;;;;;;5053080;28;20094;-80
2024/01/04 02:23:29;;;;;;;0.10;0.10;;;;;;;;;;5051155;28;20528;-79
2024/01/04 02:25:57;;;;;;;0.08;0.08;;;;;;;;;;5053867;28;20066;-80
2024/01/04 02:28:24;;;;;;;0.20;0.20;;;;;;;;;;5071057;28;20040;-80
2024/01/04 02:30:51;;;;;;;0.20;0.20;;;;;;;;;;5052617;28;20048;-80
2024/01/04 02:33:19;;;;;;;0.20;0.20;;;;;;;;;;5053321;28;20051;-80
2024/01/04 02:35:46;;;;;;;0.50;0.30;;;;;;;;;;5063434;28;20048;-80
2024/01/04 02:38:13;;;;;;;1.60;0.25;;;;;;;;;;5049174;28;20115;-80
2024/01/04 02:40:41;;;;;;;0.20;0.20;;;;;;;;;;5070230;28;20106;-80
2024/01/04 02:43:09;;;;;;;0.10;0.10;;;;;;;;;;5051783;28;20047;-79
2024/01/04 02:45:37;;;;;;;0.10;0.10;;;;;;;;;;5068000;28;20048;-80
2024/01/04 02:48:04;;;;;;;0.90;0.50;;;;;;;;;;5053948;28;20045;-80
2024/01/04 02:50:32;;;;;;;0.30;0.30;;;;;;;;;;5068000;28;20641;-80
2024/01/04 02:53:00;;;;;;;0.20;0.20;;;;;;;;;;5064147;28;20040;-80
2024/01/04 02:55:27;;;;;;;0.10;0.10;;;;;;;;;;5052536;28;20130;-80
2024/01/04 02:57:55;;;;;;;0.10;0.10;;;;;;;;;;5069740;28;20460;-80
2024/01/04 03:00:22;;;;;;;0.30;0.20;;;;;;;;;;5069680;28;20171;-80
2024/01/04 03:02:49;;;;;;;0.17;0.17;;;;;;;;;;5070124;28;20061;-80
2024/01/04 03:05:18;;;;;;;0.20;0.20;;;;;;;;;;5069753;28;20413;-80
2024/01/04 03:07:45;;;;;;;0.10;0.10;;;;;;;;;;5069064;28;20432;-80
2024/01/04 03:10:13;;;;;;;0.13;0.13;;;;;;;;;;5060655;28;20115;-80
2024/01/04 03:12:40;;;;;;;0.75;0.30;;;;;;;;;;5068343;28;20049;-80
2024/01/04 03:15:08;;;;;;;0.10;0.10;;;;;;;;;;5069146;28;20228;-80
2024/01/04 03:17:35;;;;;;;0.40;0.35;;;;;;;;;;5069134;28;20041;-80
2024/01/04 03:20:04;;;;;;;0.20;0.20;;;;;;;;;;5051404;28;20037;-79
2024/01/04 03:22:31;;;;;;;0.10;0.10;;;;;;;;;;5067930;28;20045;-79
2024/01/04 03:24:58;;;;;;;0.30;0.30;;;;;;;;;;5069198;28;20043;-80
2024/01/04 03:27:26;;;;;;;2.50;0.40;;;;;;;;;;5069382;28;20041;-80
2024/01/04 03:29:55;;;;;;;0.22;0.22;;;;;;;;;;5068681;28;20036;-80
2024/01/04 03:32:22;;;;;;;0.10;0.10;;;;;;;;;;5069174;28;20067;-80
2024/01/04 03:34:50;;;;;;;1.08;0.40;;;;;;;;;;5069178;28;20056;-80
2024/01/04 03:37:18;;;;;;;0.10;0.10;;;;;;;;;;5057403;28;20040;-80
2024/01/04 03:39:45;;;;;;;0.63;0.43;;;;;;;;;;5068832;28;20052;-79
2024/01/04 03:42:13;;;;;;;0.20;0.20;;;;;;;;;;5069220;28;20697;-80
2024/01/04 03:44:42;;;;;;;0.20;0.20;;;;;;;;;;5068401;28;20079;-80
2024/01/04 03:47:09;;;;;;;3.03;0.45;;;;;;;;;;5068715;28;20044;-80
2024/01/04 03:49:37;;;;;;;0.60;0.40;;;;;;;;;;5069488;28;20036;-80
2024/01/04 03:52:04;;;;;;;0.55;0.30;;;;;;;;;;5058990;28;20043;-80
2024/01/04 03:54:32;;;;;;;1.02;0.30;;;;;;;;;;5076076;28;20173;-80
2024/01/04 03:56:59;;;;;;;2.42;0.32;;;;;;;;;;5071467;28;20061;-80
2024/01/04 03:59:27;;;;;;;0.10;0.10;;;;;;;;;;5063244;28;20040;-80
2024/01/04 04:01:54;;;;;;;0.30;0.20;;;;;;;;;;5069589;28;20054;-79
2024/01/04 04:04:21;;;;;;;0.10;0.10;;;;;;;;;;5070585;28;20430;-80
2024/01/04 04:06:49;;;;;;;0.80;0.15;;;;;;;;;;5048789;28;20449;-80
2024/01/04 04:09:18;;;;;;;0.10;0.10;;;;;;;;;;5069033;28;20045;-80
2024/01/04 04:11:48;;;;;;;0.10;0.10;;;;;;;;;;5068658;28;20048;-80
2024/01/04 04:14:16;;;;;;;0.10;0.10;;;;;;;;;;5068661;28;20045;-80
2024/01/04 04:16:43;;;;;;;1.75;0.28;;;;;;;;;;5067466;28;20585;-80
2024/01/04 04:19:11;;;;;;;0.17;0.15;;;;;;;;;;5068801;28;20522;-80
2024/01/04 04:21:38;;;;;;;0.22;0.20;;;;;;;;;;5084236;28;20079;-79
2024/01/04 04:24:06;;;;;;;1.27;0.30;;;;;;;;;;5088910;28;20140;-80
2024/01/04 04:26:34;;;;;;;1.30;0.20;;;;;;;;;;5086155;28;20048;-80
2024/01/04 04:29:01;;;;;;;0.20;0.20;;;;;;;;;;5087081;28;20056;-80
2024/01/04 04:31:28;;;;;;;0.38;0.20;;;;;;;;;;5068933;28;20052;-80
2024/01/04 04:33:56;;;;;;;0.00;0.00;;;;;;;;;;5113550;22;20657;-76
2024/01/04 04:36:24;;;;;;;0.30;0.30;;;;;;;;;;5060274;28;20663;-76
2024/01/04 04:38:51;;;;;;;0.10;0.10;;;;;;;;;;5053787;28;20037;-75
2024/01/04 04:41:19;;;;;;;0.30;0.30;;;;;;;;;;5068280;28;20055;-75
2024/01/04 04:43:47;;;;;;;0.30;0.30;;;;;;;;;;5064108;28;20044;-76
2024/01/04 04:46:14;;;;;;;1.02;0.40;;;;;;;;;;5070045;28;20565;-75
2024/01/04 04:48:42;;;;;;;0.10;0.10;;;;;;;;;;5066359;28;20102;-75
2024/01/04 04:51:10;;;;;;;0.25;0.25;;;;;;;;;;5074253;28;20052;-75
2024/01/04 04:53:38;;;;;;;0.10;0.10;;;;;;;;;;5070441;28;20431;-75
2024/01/04 04:56:05;;;;;;;0.20;0.20;;;;;;;;;;5071854;28;20048;-76
2024/01/04 04:58:33;;;;;;;0.10;0.10;;;;;;;;;;5069840;28;20462;-75
2024/01/04 05:01:00;;;;;;;0.10;0.10;;;;;;;;;;5062583;28;20387;-75
2024/01/04 05:03:28;;;;;;;0.22;0.22;;;;;;;;;;5068446;28;20494;-75
2024/01/04 05:05:56;;;;;;;0.30;0.30;;;;;;;;;;5070295;28;20061;-75
2024/01/04 05:08:24;;;;;;;0.10;0.10;;;;;;;;;;5073330;28;20528;-76
2024/01/04 05:10:52;;;;;;;0.13;0.13;;;;;;;;;;5064795;28;20048;-75
2024/01/04 05:13:19;;;;;;;0.75;0.30;;;;;;;;;;5067194;28;20067;-75
2024/01/04 05:15:47;;;;;;;1.25;0.22;;;;;;;;;;5066785;28;20072;-75
2024/01/04 05:18:15;;;;;;;0.10;0.10;;;;;;;;;;5061759;28;20503;-75
2024/01/04 05:20:43;;;;;;;0.93;0.38;;;;;;;;;;5059840;28;20071;-75
2024/01/04 05:23:10;;;;;;;0.85;0.52;;;;;;;;;;5062330;28;20135;-76
2024/01/04 05:25:38;;;;;;;0.60;0.60;;;;;;;;;;5077952;28;20047;-75
2024/01/04 05:28:08;;;;;;;0.25;0.15;;;;;;;;;;5072337;28;20052;-75
2024/01/04 05:30:36;;;;;;;3.50;0.43;;;;;;;;;;5071391;28;20048;-75
2024/01/04 05:33:03;;;;;;;0.20;0.20;;;;;;;;;;5067439;28;20048;-75
2024/01/04 05:35:31;;;;;;;0.20;0.20;;;;;;;;;;5069251;28;20128;-76
2024/01/04 05:37:59;;;;;;;0.20;0.20;;;;;;;;;;5074555;28;20044;-75
2024/01/04 05:40:27;;;;;;;0.13;0.13;;;;;;;;;;5061774;28;20048;-76
2024/01/04 05:42:57;;;;;;;0.63;0.38;;;;;;;;;;5072224;28;20264;-76
2024/01/04 05:45:25;;;;;;;0.10;0.10;;;;;;;;;;5067275;28;20040;-77
2024/01/04 05:47:52;;;;;;;0.20;0.20;;;;;;;;;;5070773;28;20044;-75
2024/01/04 05:50:20;;;;;;;0.10;0.10;;;;;;;;;;5075055;28;20040;-76
2024/01/04 05:52:48;;;;;;;0.43;0.17;;;;;;;;;;5062063;28;20052;-75
2024/01/04 05:55:16;;;;;;;0.30;0.22;;;;;;;;;;5073626;28;20539;-75
2024/01/04 05:57:43;;;;;;;0.10;0.10;;;;;;;;;;5073612;28;20056;-75
2024/01/04 06:00:11;;;;;;;0.82;0.43;;;;;;;;;;5073439;28;20036;-77
2024/01/04 06:02:43;;;;;;;2.53;0.40;;;;;;;;;;5075302;28;20147;-75
2024/01/04 06:05:11;;;;;;;0.10;0.10;;;;;;;;;;5062996;28;20577;-76
2024/01/04 06:07:38;;;;;;;0.10;0.10;;;;;;;;;;5064474;28;20076;-75
2024/01/04 06:10:06;;;;;;;0.10;0.10;;;;;;;;;;5074409;28;20044;-75
2024/01/04 06:12:34;;;;;;;1.55;0.30;;;;;;;;;;5070515;28;20052;-77
2024/01/04 06:15:03;;;;;;;0.13;0.13;;;;;;;;;;5066503;28;20044;-75
2024/01/04 06:17:31;;;;;;;0.63;0.30;;;;;;;;;;5077150;28;20496;-75
2024/01/04 06:19:59;;;;;;;0.17;0.17;;;;;;;;;;5065626;28;20118;-75
2024/01/04 06:22:27;;;;;;;0.20;0.20;;;;;;;;;;5045701;28;20354;-76
2024/01/04 06:24:54;;;;;;;0.40;0.13;;;;;;;;;;5069345;28;20465;-75
2024/01/04 06:27:22;;;;;;;0.20;0.20;;;;;;;;;;5073280;28;20127;-75
2024/01/04 06:29:49;;;;;;;0.88;0.40;;;;;;;;;;5055924;28;20040;-75
2024/01/04 06:32:17;;;;;;;0.20;0.20;;;;;;;;;;5051029;28;20405;-75
2024/01/04 06:34:45;;;;;;;0.20;0.20;;;;;;;;;;5068508;28;20044;-76
2024/01/04 06:37:13;;;;;;;0.35;0.35;;;;;;;;;;5068799;28;20505;-75
2024/01/04 06:39:40;;;;;;;0.85;0.30;;;;;;;;;;5063127;28;20439;-76
2024/01/04 06:42:08;;;;;;;0.95;0.85;;;;;;;;;;5064688;28;20134;-75
2024/01/04 06:44:36;;;;;;;1.95;0.10;;;;;;;;;;5062795;28;20049;-76
2024/01/04 06:47:14;;;;;;;0.17;0.17;;;;;;;;;;5054030;28;20041;-76
2024/01/04 06:49:42;;;;;;;1.13;0.35;;;;;;;;;;5067192;28;20490;-76
2024/01/04 06:52:10;;;;;;;0.10;0.10;;;;;;;;;;5061434;28;20076;-76
2024/01/04 06:54:38;;;;;;;0.20;0.20;;;;;;;;;;5072332;28;20049;-77
2024/01/04 06:57:06;;;;;;;0.30;0.30;;;;;;;;;;5054529;28;20593;-76
2024/01/04 06:59:35;;;;;;;0.10;0.10;;;;;;;;;;5042672;28;20391;-77
2024/01/04 07:02:06;;;;;;;0.13;0.13;;;;;;;;;;5053510;28;20101;-75
2024/01/04 07:04:33;;;;;;;0.20;0.20;;;;;;;;;;5069045;28;20494;-75
2024/01/04 07:07:02;;;;;;;0.20;0.20;;;;;;;;;;5073692;28;20130;-75
2024/01/04 07:09:30;;;;;;;1.15;0.32;;;;;;;;;;5054765;28;20075;-77
2024/01/04 07:11:58;;;;;;;0.17;0.17;;;;;;;;;;5071133;28;20060;-75
2024/01/04 07:14:25;;;;;;;0.10;0.10;;;;;;;;;;5061246;28;20174;-75
2024/01/04 07:16:53;;;;;;;0.75;0.43;;;;;;;;;;5056518;28;20075;-79
2024/01/04 07:19:22;;;;;;;0.20;0.20;;;;;;;;;;5050280;28;20049;-76
2024/01/04 07:21:50;;;;;;;0.10;0.10;;;;;;;;;;5060831;28;20528;-76
2024/01/04 07:24:18;;;;;;;0.50;0.30;;;;;;;;;;5055506;28;20493;-75
2024/01/04 07:26:45;;;;;;;0.32;0.20;;;;;;;;;;5059226;28;20036;-75
2024/01/04 07:29:13;;;;;;;0.20;0.20;;;;;;;;;;5058996;28;20246;-75
2024/01/04 07:31:41;;;;;;;0.10;0.10;;;;;;;;;;5060174;28;20095;-75
2024/01/04 07:34:09;;;;;;;0.15;0.15;;;;;;;;;;5062656;28;20147;-75
2024/01/04 07:36:37;;;;;;;0.15;0.15;;;;;;;;;;5057832;28;20056;-75
2024/01/04 07:39:04;;;;;;;0.40;0.40;;;;;;;;;;5061000;28;20544;-76
2024/01/04 07:41:32;;;;;;;0.88;0.35;;;;;;;;;;5062863;28;20119;-75
2024/01/04 07:44:04;;;;;;;0.77;0.77;;;;;;;;;;5052101;28;20139;-77
2024/01/04 07:46:31;;;;;;;0.52;0.32;;;;;;;;;;5059692;28;20529;-75
2024/01/04 07:48:59;;;;;;;0.20;0.20;;;;;;;;;;5049067;28;20507;-75
2024/01/04 07:51:27;;;;;;;0.10;0.10;;;;;;;;;;5057653;28;20419;-76
2024/01/04 07:53:56;;;;;;;0.35;0.35;;;;;;;;;;5042852;28;20132;-75
2024/01/04 07:56:24;;;;;;;2.00;0.40;;;;;;;;;;5055086;28;20507;-75
2024/01/04 07:58:51;;;;;;;0.10;0.10;;;;;;;;;;5060933;28;20136;-76
2024/01/04 08:01:19;;;;;;;0.30;0.30;;;;;;;;;;5057791;28;20140;-75
2024/01/04 08:03:47;;;;;;;0.30;0.30;;;;;;;;;;5062149;28;20059;-76
2024/01/04 08:06:14;;;;;;;0.20;0.20;;;;;;;;;;5062436;28;20046;-75
2024/01/04 08:08:42;;;;;;;1.00;0.50;;;;;;;;;;5061348;28;20380;-76
2024/01/04 08:11:10;;;;;;;1.90;0.52;;;;;;;;;;5053090;28;20502;-75
2024/01/04 08:13:38;;;;;;;0.30;0.30;;;;;;;;;;5045039;28;20465;-75
2024/01/04 08:16:05;;;;;;;0.13;0.13;;;;;;;;;;5048829;28;20041;-75
2024/01/04 08:18:35;;;;;;;0.10;0.10;;;;;;;;;;5056023;28;20080;-75
2024/01/04 08:21:05;;;;;;;0.20;0.20;;;;;;;;;;5052771;28;20055;-75
2024/01/04 08:23:33;;;;;;;0.32;0.20;;;;;;;;;;5061947;28;20125;-75
2024/01/04 08:26:03;;;;;;;2.15;0.80;;;;;;;;;;5057541;28;20040;-75
2024/01/04 08:28:31;;;;;;;0.10;0.10;;;;;;;;;;5042822;28;20050;-75
2024/01/04 08:30:59;;;;;;;0.20;0.20;;;;;;;;;;5042001;28;20048;-75
2024/01/04 08:33:32;;;;;;;0.10;0.10;;;;;;;;;;5053620;28;20288;-75
2024/01/04 08:36:00;;;;;;;0.20;0.20;;;;;;;;;;5055314;28;20429;-76
2024/01/04 08:38:30;;;;;;;0.30;0.20;;;;;;;;;;5033703;28;20044;-75
2024/01/04 08:40:58;;;;;;;3.60;0.40;;;;;;;;;;5048945;28;20108;-76
2024/01/04 08:43:26;;;;;;;0.10;0.10;;;;;;;;;;5042954;28;20056;-75
2024/01/04 08:45:53;;;;;;;0.75;0.30;;;;;;;;;;5057527;28;20059;-75
2024/01/04 08:48:21;;;;;;;0.25;0.25;;;;;;;;;;5059747;28;20090;-76
2024/01/04 08:50:49;;;;;;;0.10;0.10;;;;;;;;;;5054502;28;20041;-77
2024/01/04 08:53:20;;;;;;;0.30;0.30;;;;;;;;;;5062945;28;20063;-76
2024/01/04 08:55:49;;;;;;;0.20;0.20;;;;;;;;;;5059759;28;20442;-75
2024/01/04 08:58:17;;;;;;;0.55;0.55;;;;;;;;;;5062108;28;20052;-76
2024/01/04 09:00:45;;;;;;;1.17;0.30;;;;;;;;;;5057381;28;20335;-75
2024/01/04 09:03:13;;;;;;;0.20;0.20;;;;;;;;;;5035141;28;20339;-76
2024/01/04 09:05:41;;;;;;;0.20;0.20;;;;;;;;;;5046676;28;20135;-75
2024/01/04 09:08:09;;;;;;;0.65;0.65;;;;;;;;;;5058556;28;20055;-75
2024/01/04 09:10:37;;;;;;;0.38;0.38;;;;;;;;;;5065314;28;20055;-75
2024/01/04 09:13:04;;;;;;;0.20;0.20;;;;;;;;;;5063153;28;20105;-75
2024/01/04 09:15:32;;;;;;;0.80;0.52;;;;;;;;;;5056555;28;20045;-76
2024/01/04 09:17:59;;;;;;;0.68;0.30;;;;;;;;;;5063359;28;20528;-75
2024/01/04 09:20:28;;;;;;;0.13;0.13;;;;;;;;;;5065758;28;20294;-76
2024/01/04 09:22:55;;;;;;;1.45;0.80;;;;;;;;;;5061249;28;20442;-75
2024/01/04 09:25:23;;;;;;;1.30;0.40;;;;;;;;;;5067733;28;20051;-74
2024/01/04 09:27:55;;;;;;;;;;;;;;;;;;5066474;28;20057;-74
2024/01/04 09:30:23;;;;;;;0.30;0.22;;;;;;;;;;5064927;28;19920;-74
2024/01/04 09:32:50;;;;;;;0.10;0.10;;;;;;;;;;5062262;28;20156;-75
2024/01/04 09:35:22;;;;;;;0.63;0.50;;;;;;;;;;5067308;28;20493;-75
2024/01/04 09:37:50;;;;;;;0.82;0.40;;;;;;;;;;5067745;28;20055;-74
2024/01/04 09:40:21;;;;;;;0.30;0.30;;;;;;;;;;5073308;28;20040;-75
2024/01/04 09:42:51;;;;;;;0.10;0.10;;;;;;;;;;5066113;28;20052;-75
2024/01/04 09:45:21;;;;;;;0.20;0.20;;;;;;;;;;5071026;28;20089;-75
2024/01/04 09:47:50;;;;;;;0.22;0.22;;;;;;;;;;5054968;28;20337;-76
2024/01/04 09:50:18;;;;;;;0.30;0.25;;;;;;;;;;5027683;28;20050;-76
2024/01/04 09:52:47;;;;;;;1.35;0.43;;;;;;;;;;5063607;28;20113;-75
2024/01/04 09:55:18;;;;;;;0.20;0.20;;;;;;;;;;5052873;28;20049;-75
2024/01/04 09:57:45;;;;;;;0.30;0.25;;;;;;;;;;5066878;28;20045;-75
2024/01/04 10:00:13;;;;;;;0.20;0.20;;;;;;;;;;5062523;28;20040;-74
2024/01/04 10:02:42;;;;;;;1.63;0.40;;;;;;;;;;5064876;28;20037;-75
2024/01/04 10:05:14;;;;;;;0.03;0.03;;;;;;;;;;5063898;28;20072;-75
2024/01/04 10:08:12;;;;;;;1.08;0.70;;;;;;;;;;5065449;28;20041;-75
2024/01/04 10:10:41;;;;;;;0.15;0.15;;;;;;;;;;5054824;28;20506;-75
2024/01/04 10:13:10;;;;;;;0.38;0.38;;;;;;;;;;5060344;28;20060;-75
2024/01/04 10:15:37;;;;;;;0.15;0.15;;;;;;;;;;5059224;28;20510;-75
2024/01/04 10:18:12;;;;;;;0.10;0.10;;;;;;;;;;5059668;28;20494;-75
2024/01/04 10:20:41;;;;;;;0.28;0.28;;;;;;;;;;5060544;28;20048;-75
2024/01/04 10:23:11;;;;;;;0.15;0.15;;;;;;;;;;5061229;28;20057;-75
2024/01/04 10:25:39;;;;;;;0.10;0.10;;;;;;;;;;5059018;28;20113;-74
2024/01/04 10:28:06;;;;;;;0.25;0.25;;;;;;;;;;5067288;28;20047;-75
2024/01/04 10:30:42;;;;;;;0.30;0.30;;;;;;;;;;5062796;28;20502;-76
2024/01/04 10:33:10;;;;;;;0.10;0.10;;;;;;;;;;5068228;28;20549;-75
2024/01/04 10:35:38;;;;;;;2.42;0.30;;;;;;;;;;5034230;28;20055;-76
2024/01/04 10:38:06;;;;;;;0.47;0.43;;;;;;;;;;5049562;28;20044;-76
2024/01/04 10:40:33;;;;;;;1.45;0.63;;;;;;;;;;5062649;28;20044;-76
2024/01/04 10:43:02;;;;;;;0.20;0.20;;;;;;;;;;5064142;28;20058;-75
2024/01/04 10:45:30;;;;;;;0.47;0.45;;;;;;;;;;5043235;28;20490;-76
2024/01/04 10:47:59;;;;;;;0.50;0.50;;;;;;;;;;5058277;28;20056;-76
2024/01/04 10:50:30;;;;;;;5.05;0.40;;;;;;;;;;5065112;28;20550;-76
2024/01/04 10:53:00;;;;;;;1.40;0.50;;;;;;;;;;5063423;28;20519;-75
2024/01/04 10:55:28;;;;;;;0.77;0.50;;;;;;;;;;5040925;28;20060;-76
2024/01/04 10:57:58;;;;;;;0.57;0.55;;;;;;;;;;5056355;28;20044;-77
2024/01/04 11:00:28;;;;;;;0.20;0.20;;;;;;;;;;5062571;28;20044;-76
2024/01/04 11:02:56;;;;;;;0.20;0.20;;;;;;;;;;5047923;28;20493;-75
2024/01/04 11:05:25;;;;;;;0.57;0.57;;;;;;;;;;5067732;28;20139;-75
2024/01/04 11:07:55;;;;;;;0.40;0.40;;;;;;;;;;5046949;28;20071;-74
2024/01/04 11:10:24;;;;;;;0.40;0.40;;;;;;;;;;5058553;28;20037;-75
2024/01/04 11:12:52;;;;;;;0.13;0.13;;;;;;;;;;5066683;28;20041;-76
2024/01/04 11:15:19;;;;;;;0.50;0.45;;;;;;;;;;5060033;28;20052;-75
2024/01/04 11:17:56;;;;;;;1.10;0.40;;;;;;;;;;5064604;28;20121;-75
2024/01/04 11:20:42;;;;;;;0.20;0.20;;;;;;;;;;5047586;28;20111;-75
2024/01/04 11:23:20;;;;;;;0.20;0.20;;;;;;;;;;5069645;28;20071;-75
2024/01/04 11:25:57;;;;;;;0.10;0.10;;;;;;;;;;5066358;28;20607;-75
2024/01/04 11:28:25;;;;;;;0.10;0.10;;;;;;;;;;5115397;22;20692;-89
2024/01/04 11:31:08;;;;;;;0.43;0.30;;;;;;;;;;5045761;28;20048;-90
2024/01/04 11:33:42;;;;;;;0.20;0.20;;;;;;;;;;5070521;28;20505;-88
2024/01/04 11:36:16;;;;;;;0.28;0.28;;;;;;;;;;5052027;28;20075;-87
2024/01/04 11:39:00;;;;;;;0.30;0.30;;;;;;;;;;5070802;28;20036;-88
2024/01/04 11:41:43;;;;;;;0.10;0.10;;;;;;;;;;5049890;28;20046;-91
2024/01/04 11:44:17;;;;;;;0.20;0.20;;;;;;;;;;5055211;28;20395;-89
2024/01/04 11:46:56;;;;;;;6.75;0.45;;;;;;;;;;5059091;28;20072;-90
2024/01/04 11:49:31;;;;;;;0.32;0.22;;;;;;;;;;5067806;28;20127;-90
2024/01/04 11:52:38;;;;;;;0.38;0.30;;;;;;;;;;5065122;28;20044;-84
2024/01/04 11:55:28;;;;;;;0.73;0.52;;;;;;;;;;5048770;28;20091;-88
2024/01/04 11:58:25;;;;;;;0.30;0.30;;;;;;;;;;5066184;28;20080;-86
2024/01/04 12:01:36;;;;;;;0.43;0.35;;;;;;;;;;5039828;28;20181;-88
2024/01/04 12:04:15;;;;;;;1.48;0.45;;;;;;;;;;5061984;28;20045;-90
2024/01/04 12:07:02;;;;;;;1.55;1.45;;;;;;;;;;5033816;28;20041;-88
2024/01/04 12:09:30;;;;;;;0.22;0.22;;;;;;;;;;5057139;28;20079;-86
2024/01/04 12:12:16;;;;;;;0.22;0.22;;;;;;;;;;5052553;28;20051;-89
2024/01/04 12:14:49;;;;;;;;;;;;;;;;;;5054131;28;20407;-89
2024/01/04 12:17:26;;;;;;;0.17;0.17;;;;;;;;;;5062648;28;22352;-89
2024/01/04 12:19:58;;;;;;;0.10;0.10;;;;;;;;;;5070539;28;20052;-90
2024/01/04 12:22:28;;;;;;;2.65;0.63;;;;;;;;;;5035848;28;20048;-90
2024/01/04 12:24:58;;;;;;;0.30;0.30;;;;;;;;;;5071300;28;20502;-90
2024/01/04 12:27:26;;;;;;;0.10;0.10;;;;;;;;;;5075581;28;20389;-88
2024/01/04 12:29:56;;;;;;;0.30;0.30;;;;;;;;;;5056770;28;20045;-88
2024/01/04 12:32:24;;;;;;;1.15;0.30;;;;;;;;;;5036434;28;20052;-88
2024/01/04 12:34:53;;;;;;;0.25;0.25;;;;;;;;;;5051824;28;20041;-89
2024/01/04 12:37:25;;;;;;;0.65;0.65;;;;;;;;;;5018036;28;24201;-88
2024/01/04 12:40:06;;;;;;;0.45;0.45;;;;;;;;;;5029735;28;20114;-88
2024/01/04 12:42:34;;;;;;;0.20;0.20;;;;;;;;;;5046963;28;20039;-90
2024/01/04 12:45:08;;;;;;;0.73;0.43;;;;;;;;;;5068197;28;20772;-89
2024/01/04 12:47:40;;;;;;;1.65;0.40;;;;;;;;;;5059345;28;20055;-90
2024/01/04 12:50:13;;;;;;;0.40;0.40;;;;;;;;;;5071108;28;20045;-90
2024/01/04 12:52:45;;;;;;;0.32;0.20;;;;;;;;;;5077610;28;20044;-88
2024/01/04 12:55:20;;;;;;;1.08;0.47;;;;;;;;;;5034003;28;20045;-88
2024/01/04 12:57:48;;;;;;;0.10;0.10;;;;;;;;;;5048957;28;20534;-89
2024/01/04 13:00:16;;;;;;;0.70;0.30;;;;;;;;;;5043834;28;20072;-89
2024/01/04 13:03:01;;;;;;;;;;;;;;;;;;5059106;28;20045;-88
2024/01/04 13:05:39;;;;;;;0.22;0.22;;;;;;;;;;5046453;28;19972;-85
2024/01/04 13:08:12;;;;;;;0.30;0.30;;;;;;;;;;5062559;28;20052;-91
2024/01/04 13:10:40;;;;;;;0.60;0.30;;;;;;;;;;5045243;28;20125;-89
2024/01/04 13:13:10;;;;;;;1.75;0.40;;;;;;;;;;5051396;28;20052;-86
2024/01/04 13:15:38;;;;;;;0.10;0.10;;;;;;;;;;5047606;28;20037;-88
2024/01/04 13:18:18;;;;;;;0.28;0.28;;;;;;;;;;5063871;28;20136;-88
2024/01/04 13:20:50;;;;;;;0.43;0.43;;;;;;;;;;5226311;22;20056;-89
2024/01/04 13:23:21;;;;;;;0.20;0.20;;;;;;;;;;5086428;28;20690;-88
2024/01/04 13:26:28;;;;;;;0.13;0.13;;;;;;;;;;5085488;28;20123;-89
2024/01/04 13:28:56;;;;;;;0.28;0.28;;;;;;;;;;5086935;28;20044;-89
2024/01/04 13:31:43;;;;;;;0.40;0.40;;;;;;;;;;5097429;22;20126;-88
2024/01/04 13:34:27;;;;;;;0.40;0.40;;;;;;;;;;5089740;28;20044;-87
2024/01/04 13:37:07;;;;;;;1.55;0.47;;;;;;;;;;5094086;28;20531;-85
2024/01/04 13:39:42;;;;;;;0.10;0.10;;;;;;;;;;5076714;28;20055;-86
2024/01/04 13:42:12;;;;;;;0.38;0.38;;;;;;;;;;5074254;28;20448;-84
2024/01/04 13:44:41;;;;;;;0.00;0.00;;;;;;;;;;5076805;28;20046;-84
2024/01/04 13:47:09;;;;;;;1.20;0.65;;;;;;;;;;5075916;28;20319;-87
2024/01/04 13:49:48;;;;;;;3.65;1.45;;;;;;;;;;5077061;28;20040;-88
2024/01/04 13:52:31;;;;;;;2.15;0.38;;;;;;;;;;5069807;28;20044;-90
2024/01/04 13:55:16;;;;;;;2.17;0.93;;;;;;;;;;5050238;28;20044;-89
2024/01/04 13:58:38;;;;;;;0.25;0.25;;;;;;;;;;5062221;28;20133;-86
2024/01/04 14:02:41;;;;;;;2.95;0.50;;;;;;;;;;5010516;28;20192;-86
2024/01/04 14:05:56;;;;;;;5.05;2.22;;;;;;;;;;5047253;28;20056;-89
2024/01/04 14:08:40;;;;;;;0.10;0.10;;;;;;;;;;5069736;28;20112;-85
2024/01/04 14:11:49;;;;;;;0.98;0.60;;;;;;;;;;5066429;28;20037;-87
2024/01/04 14:21:35;;;;;;;;;;;;;;;;;;;;;
2024/01/04 14:28:48;;;;;;;0.10;0.10;;;;;;;;;;5052216;28;20040;-84
2024/01/04 14:35:28;;;;;;;0.57;0.52;;;;;;;;;;5039268;28;20036;-90
2024/01/04 14:38:26;;;;;;;0.10;0.10;;;;;;;;;;5075856;28;20502;-88
2024/01/04 14:41:15;;;;;;;0.45;0.45;;;;;;;;;;4994685;28;20050;-87
2024/01/04 14:47:36;;;;;;;2.35;0.80;;;;;;;;;;5032375;28;20088;-84
2024/01/04 14:51:26;;;;;;;;;;;;;;;;;;;;;
2024/01/04 14:54:30;;;;;;;0.13;0.13;;;;;;;;;;4999032;28;20105;-88
2024/01/04 15:01:40;;;;;;;0.10;0.10;;;;;;;;;;5181900;22;20071;-76
2024/01/04 15:04:07;;;;;;;0.20;0.20;;;;;;;;;;5003305;28;20206;-76
2024/01/04 15:06:35;;;;;;;0.10;0.10;;;;;;;;;;5036795;28;20073;-77
2024/01/04 15:09:03;;;;;;;0.17;0.17;;;;;;;;;;5023954;28;20434;-77
2024/01/04 15:11:32;;;;;;;0.10;0.10;;;;;;;;;;5024780;28;20869;-76
2024/01/04 15:14:00;;;;;;;0.10;0.10;;;;;;;;;;5045708;28;20048;-76
2024/01/04 15:16:29;;;;;;;0.30;0.30;;;;;;;;;;5040727;28;20133;-76
2024/01/04 15:18:57;;;;;;;0.65;0.65;;;;;;;;;;5045433;28;20045;-78
2024/01/04 15:21:25;;;;;;;0.30;0.30;;;;;;;;;;5044684;28;20045;-77
2024/01/04 15:23:53;;;;;;;0.30;0.30;;;;;;;;;;5044542;28;20051;-78
2024/01/04 15:26:21;;;;;;;0.10;0.10;;;;;;;;;;5046170;28;20067;-76
2024/01/04 15:28:49;;;;;;;0.13;0.13;;;;;;;;;;5037611;28;20080;-77
2024/01/04 15:31:16;;;;;;;0.13;0.13;;;;;;;;;;5044868;28;20075;-76